Time;durP1;ratioP1;P1;durP2;ratioP2;P2;SDS_P1;SDS_P2;PMS_P1;PMS_P2;Temp;Humidity;BMP_temperature;BMP_pressure;BME280_temperature;BME280_humidity;BME280_pressure;Samples;Min_cycle;Max_cycle;Signal;HPM_P1;HPM_P2
2022/07/10 00:00:43;;;;;;;0.63;0.20;;;;;;;15.62;100.00;101261.91;7403508;19;20014;-94
2022/07/10 00:03:09;;;;;;;0.95;0.73;;;;;;;15.59;100.00;101262.09;7403526;19;20011;-94
2022/07/10 00:05:35;;;;;;;0.50;0.30;;;;;;;15.54;100.00;101257.13;7401776;19;20326;-94
2022/07/10 00:08:02;;;;;;;1.45;0.40;;;;;;;15.55;100.00;101250.28;7404752;19;20014;-94
2022/07/10 00:10:33;;;;;;;0.20;0.20;;;;;;;15.62;100.00;101250.69;7407510;19;20011;-93
2022/07/10 00:12:59;;;;;;;;;;;;;;;15.64;100.00;101253.00;7405630;19;20014;-94
2022/07/10 00:15:25;;;;;;;0.22;0.22;;;;;;;15.66;100.00;101250.50;7401990;19;21036;-94
2022/07/10 00:17:51;;;;;;;0.20;0.20;;;;;;;15.74;100.00;101244.03;7403734;19;20015;-94
2022/07/10 00:20:17;;;;;;;1.88;1.48;;;;;;;15.89;100.00;101244.91;7407736;19;20031;-94
2022/07/10 00:22:44;;;;;;;0.60;0.57;;;;;;;15.88;100.00;101240.53;7405444;19;20038;-94
2022/07/10 00:25:14;;;;;;;1.45;0.90;;;;;;;15.71;100.00;101235.81;7402733;19;20337;-95
2022/07/10 00:27:41;;;;;;;0.50;0.50;;;;;;;15.53;100.00;101230.28;7401741;19;20015;-94
2022/07/10 00:30:08;;;;;;;0.63;0.40;;;;;;;15.52;100.00;101234.38;7403735;19;20010;-94
2022/07/10 00:32:35;;;;;;;1.65;0.80;;;;;;;15.50;100.00;101236.88;7399254;19;20018;-93
2022/07/10 00:35:05;;;;;;;1.75;1.08;;;;;;;15.48;100.00;101228.16;7401731;19;20018;-93
2022/07/10 00:37:31;;;;;;;0.40;0.40;;;;;;;15.51;100.00;101235.59;7404170;19;20070;-93
2022/07/10 00:39:57;;;;;;;1.10;0.60;;;;;;;15.71;100.00;101235.81;7406682;19;20017;-93
2022/07/10 00:42:23;;;;;;;1.95;0.32;;;;;;;15.86;100.00;101226.19;7404343;19;20085;-93
2022/07/10 00:44:50;;;;;;;0.63;0.30;;;;;;;15.87;100.00;101221.34;7402311;19;20014;-93
2022/07/10 00:47:19;;;;;;;1.70;0.90;;;;;;;15.93;100.00;101219.44;7399356;19;20014;-91
2022/07/10 00:49:47;;;;;;;0.93;0.50;;;;;;;16.01;100.00;101217.81;7402148;19;20082;-91
2022/07/10 00:52:15;;;;;;;3.72;0.75;;;;;;;16.05;100.00;101226.06;7397447;19;20014;-92
2022/07/10 00:54:44;;;;;;;2.17;0.93;;;;;;;16.08;100.00;101219.47;7399852;19;20027;-90
2022/07/10 00:57:12;;;;;;;1.30;0.55;;;;;;;16.08;100.00;101219.47;7404059;19;20018;-92
2022/07/10 00:59:38;;;;;;;1.25;0.75;;;;;;;16.15;100.00;101225.50;7405114;19;20034;-91
2022/07/10 01:02:05;;;;;;;1.20;0.70;;;;;;;16.18;100.00;101224.53;7401606;19;20016;-90
2022/07/10 01:04:32;;;;;;;0.73;0.73;;;;;;;16.19;100.00;101226.09;7399022;19;20027;-92
2022/07/10 01:06:59;;;;;;;1.42;0.38;;;;;;;16.26;100.00;101220.09;7399075;19;20021;-92
2022/07/10 01:09:25;;;;;;;1.70;0.30;;;;;;;16.33;100.00;101221.78;7412434;19;20330;-91
2022/07/10 01:11:52;;;;;;;1.42;0.93;;;;;;;16.31;100.00;101211.00;7406544;19;20019;-91
2022/07/10 01:14:19;;;;;;;0.40;0.30;;;;;;;16.41;100.00;101214.50;7405552;19;20011;-89
2022/07/10 01:16:46;;;;;;;1.00;0.80;;;;;;;16.51;100.00;101213.19;7401867;19;20018;-91
2022/07/10 01:19:12;;;;;;;2.08;0.85;;;;;;;16.61;100.00;101200.59;7403584;19;20107;-92
2022/07/10 01:21:38;;;;;;;0.77;0.28;;;;;;;16.67;100.00;101210.66;7402468;19;20018;-91
2022/07/10 01:24:09;;;;;;;0.73;0.50;;;;;;;16.71;100.00;101198.44;7400392;19;20041;-91
2022/07/10 01:26:36;;;;;;;0.40;0.40;;;;;;;16.79;100.00;101199.59;7399755;19;20476;-90
2022/07/10 01:29:05;;;;;;;1.70;0.35;;;;;;;16.81;100.00;101208.31;7399773;19;20074;-92
2022/07/10 01:31:32;;;;;;;1.48;0.52;;;;;;;16.83;100.00;101205.81;7398600;19;20038;-92
2022/07/10 01:34:00;;;;;;;2.85;0.80;;;;;;;16.82;100.00;101198.63;7399359;19;20515;-93
2022/07/10 01:36:29;;;;;;;0.25;0.25;;;;;;;16.88;100.00;101191.06;7400573;19;20007;-93
2022/07/10 01:38:56;;;;;;;1.27;0.45;;;;;;;16.92;100.00;101197.25;7404169;19;20015;-92
2022/07/10 01:41:23;;;;;;;0.60;0.38;;;;;;;16.98;100.00;101187.63;7402400;19;20025;-92
2022/07/10 01:43:50;;;;;;;1.45;0.57;;;;;;;17.12;100.00;101189.66;7398357;19;20010;-92
2022/07/10 01:46:17;;;;;;;0.60;0.22;;;;;;;17.22;100.00;101193.13;7397358;19;20499;-92
2022/07/10 01:48:43;;;;;;;1.20;0.28;;;;;;;17.29;100.00;101192.72;7398081;19;20018;-93
2022/07/10 01:51:10;;;;;;;0.47;0.28;;;;;;;17.31;100.00;101190.19;7401657;19;20018;-92
2022/07/10 01:53:37;;;;;;;0.40;0.40;;;;;;;17.46;100.00;101190.91;7397047;19;20011;-92
2022/07/10 01:56:06;;;;;;;0.55;0.10;;;;;;;17.56;100.00;101183.94;7398596;19;20022;-92
2022/07/10 01:58:32;;;;;;;2.72;0.43;;;;;;;17.56;100.00;101178.31;7399079;19;20010;-92
2022/07/10 02:00:59;;;;;;;1.40;0.52;;;;;;;17.58;100.00;101181.41;7397607;19;20338;-93
2022/07/10 02:06:10;;;;;;;2.65;0.95;;;;;;;17.67;100.00;101172.78;7397849;19;20037;-92
2022/07/10 02:08:36;;;;;;;1.88;0.57;;;;;;;17.66;100.00;101176.13;7399638;19;20014;-92
2022/07/10 02:11:02;;;;;;;0.47;0.38;;;;;;;17.74;100.00;101171.59;7397553;19;20018;-92
2022/07/10 02:13:29;;;;;;;0.65;0.32;;;;;;;17.76;100.00;101164.22;7396975;19;20361;-92
2022/07/10 02:15:55;;;;;;;2.50;0.80;;;;;;;17.80;100.00;101164.00;7394250;19;20010;-92
2022/07/10 02:18:22;;;;;;;2.17;0.52;;;;;;;17.89;100.00;101167.44;7398155;19;20014;-92
2022/07/10 02:20:49;;;;;;;0.43;0.40;;;;;;;17.91;100.00;101164.91;7398970;19;20092;-91
2022/07/10 02:23:15;;;;;;;0.77;0.35;;;;;;;17.94;100.00;101163.91;7397840;19;20025;-92
2022/07/10 02:25:41;;;;;;;3.53;1.10;;;;;;;18.06;100.00;101168.41;7397515;19;20015;-92
2022/07/10 02:28:08;;;;;;;1.05;0.38;;;;;;;18.07;100.00;101161.50;7398516;19;20014;-90
2022/07/10 02:30:34;;;;;;;0.77;0.50;;;;;;;18.11;100.00;101162.06;7400995;19;20015;-90
2022/07/10 02:33:01;;;;;;;0.90;0.30;;;;;;;18.17;100.00;101165.72;7396692;19;20155;-90
2022/07/10 02:35:27;;;;;;;0.28;0.28;;;;;;;18.07;100.00;101158.69;7397659;19;20014;-90
2022/07/10 02:37:53;;;;;;;0.57;0.25;;;;;;;17.99;100.00;101168.06;7397182;19;20337;-90
2022/07/10 02:40:19;;;;;;;1.48;0.40;;;;;;;18.08;100.00;101156.66;7399769;19;20003;-90
2022/07/10 02:42:46;;;;;;;0.20;0.20;;;;;;;18.11;100.00;101162.06;7396374;19;20010;-90
2022/07/10 02:45:12;;;;;;;1.48;0.63;;;;;;;18.14;100.00;101163.91;7395872;19;20047;-90
2022/07/10 02:47:38;;;;;;;0.60;0.20;;;;;;;18.12;100.00;101162.84;7396257;19;20110;-90
2022/07/10 02:50:05;;;;;;;0.85;0.22;;;;;;;18.14;100.00;101161.09;7398209;19;20014;-90
2022/07/10 02:52:31;;;;;;;0.77;0.30;;;;;;;18.22;100.00;101160.63;7396478;19;20006;-90
2022/07/10 02:54:58;;;;;;;0.57;0.25;;;;;;;18.18;100.00;101153.16;7395069;19;20039;-90
2022/07/10 02:57:24;;;;;;;2.42;0.63;;;;;;;18.16;100.00;101154.94;7398191;19;20070;-90
2022/07/10 02:59:51;;;;;;;0.80;0.20;;;;;;;18.22;100.00;101154.97;7397734;19;20445;-90
2022/07/10 03:02:17;;;;;;;0.68;0.20;;;;;;;18.20;100.00;101144.22;7397200;19;20039;-90
2022/07/10 03:04:43;;;;;;;4.10;0.25;;;;;;;18.23;100.00;101145.25;7394516;19;20106;-91
2022/07/10 03:07:09;;;;;;;0.30;0.20;;;;;;;18.22;100.00;101144.47;7395503;19;20474;-90
2022/07/10 03:09:37;;;;;;;0.93;0.50;;;;;;;18.16;100.00;101141.63;7398486;19;20018;-90
2022/07/10 03:12:03;;;;;;;0.30;0.13;;;;;;;18.13;100.00;101136.19;7395319;19;20014;-91
2022/07/10 03:14:29;;;;;;;1.20;0.30;;;;;;;18.08;100.00;101129.22;7394670;19;20010;-90
2022/07/10 03:16:56;;;;;;;2.72;0.22;;;;;;;18.07;100.00;101136.13;7395140;19;20006;-90
2022/07/10 03:19:22;;;;;;;0.40;0.20;;;;;;;18.08;100.00;101148.94;7398887;19;20022;-90
2022/07/10 03:21:48;;;;;;;0.45;0.32;;;;;;;18.17;100.00;101145.97;7395209;19;20011;-90
2022/07/10 03:24:14;;;;;;;0.20;0.20;;;;;;;18.18;100.00;101127.78;7394073;19;20015;-90
2022/07/10 03:26:40;;;;;;;8.13;0.30;;;;;;;18.27;100.00;101131.72;7391289;19;20015;-90
2022/07/10 03:29:06;;;;;;;0.55;0.20;;;;;;;18.30;100.00;101128.66;7393209;19;20042;-90
2022/07/10 03:31:32;;;;;;;3.13;0.17;;;;;;;18.26;100.00;101127.38;7394989;19;20052;-90
2022/07/10 03:33:59;;;;;;;8.25;0.75;;;;;;;18.25;100.00;101132.22;7393415;19;20003;-90
2022/07/10 03:36:25;;;;;;;0.40;0.10;;;;;;;18.19;100.00;101118.06;7393847;19;20101;-90
2022/07/10 03:38:51;;;;;;;0.75;0.68;;;;;;;18.17;100.00;101112.13;7395353;19;20021;-90
2022/07/10 03:41:17;;;;;;;0.50;0.43;;;;;;;18.17;100.00;101125.44;7395140;19;20026;-90
2022/07/10 03:43:43;;;;;;;0.20;0.20;;;;;;;18.20;100.00;101130.09;7394733;19;20019;-90
2022/07/10 03:46:10;;;;;;;0.28;0.13;;;;;;;18.22;100.00;101116.28;7394756;19;20073;-90
2022/07/10 03:48:36;;;;;;;2.70;0.10;;;;;;;18.25;100.00;101125.78;7393934;19;20011;-91
2022/07/10 03:51:02;;;;;;;0.35;0.20;;;;;;;18.24;100.00;101119.38;7398173;19;20010;-90
2022/07/10 03:53:28;;;;;;;1.90;0.30;;;;;;;18.25;100.00;101120.94;7392553;19;20011;-91
2022/07/10 03:55:54;;;;;;;0.50;0.20;;;;;;;18.28;100.00;101113.53;7393556;19;20074;-91
2022/07/10 03:58:20;;;;;;;0.55;0.30;;;;;;;18.28;100.00;101107.91;7393591;19;20053;-90
2022/07/10 04:00:47;;;;;;;0.45;0.17;;;;;;;18.29;100.00;101101.75;7393778;19;20020;-91
2022/07/10 04:03:13;;;;;;;4.07;0.40;;;;;;;18.26;100.00;101104.81;7394322;19;20015;-90
2022/07/10 04:05:40;;;;;;;4.47;0.25;;;;;;;18.24;100.00;101102.47;7392533;19;20018;-90
2022/07/10 04:08:07;;;;;;;0.25;0.25;;;;;;;18.22;100.00;101107.81;7393962;19;20017;-91
2022/07/10 04:10:33;;;;;;;0.90;0.40;;;;;;;18.28;100.00;101108.66;7400637;19;20015;-91
2022/07/10 04:13:00;;;;;;;0.10;0.10;;;;;;;18.29;100.00;101098.91;7399423;19;20053;-87
2022/07/10 04:15:26;;;;;;;0.38;0.38;;;;;;;18.29;100.00;101104.56;7395490;19;20008;-90
2022/07/10 04:17:53;;;;;;;0.70;0.20;;;;;;;18.32;100.00;101109.19;7393716;19;20019;-90
2022/07/10 04:20:20;;;;;;;2.22;0.70;;;;;;;18.31;100.00;101112.53;7397824;19;20017;-91
2022/07/10 04:22:47;;;;;;;0.30;0.30;;;;;;;18.29;100.00;101103.78;7395691;19;20014;-90
2022/07/10 04:25:13;;;;;;;1.20;0.40;;;;;;;18.30;100.00;101106.09;7392406;19;20036;-91
2022/07/10 04:27:39;;;;;;;3.78;0.40;;;;;;;18.21;100.00;101097.06;7392697;19;20357;-90
2022/07/10 04:30:06;;;;;;;0.28;0.10;;;;;;;18.12;100.00;101100.81;7396467;19;20018;-91
2022/07/10 04:32:33;;;;;;;0.20;0.20;;;;;;;18.03;100.00;101098.94;7393186;19;20515;-90
2022/07/10 04:35:00;;;;;;;0.38;0.20;;;;;;;18.01;100.00;101101.47;7392486;19;20025;-90
2022/07/10 04:37:28;;;;;;;0.38;0.30;;;;;;;18.08;100.00;101103.84;7393813;19;20042;-90
2022/07/10 04:39:54;;;;;;;0.52;0.13;;;;;;;18.13;100.00;101103.13;7404612;19;20366;-90
2022/07/10 04:42:20;;;;;;;2.10;0.40;;;;;;;18.17;100.00;101103.69;7401065;19;20011;-90
2022/07/10 04:44:46;;;;;;;0.68;0.60;;;;;;;18.29;100.00;101098.16;7398907;19;20034;-90
2022/07/10 04:47:12;;;;;;;0.25;0.20;;;;;;;18.40;100.00;101098.25;7399496;19;20021;-90
2022/07/10 04:49:39;;;;;;;0.55;0.47;;;;;;;18.38;100.00;101095.16;7400512;19;20017;-90
2022/07/10 04:52:05;;;;;;;3.45;0.22;;;;;;;18.36;100.00;101095.66;7398341;19;20010;-90
2022/07/10 04:54:32;;;;;;;0.10;0.10;;;;;;;18.43;100.00;101097.25;7396655;19;20026;-91
2022/07/10 04:56:58;;;;;;;0.63;0.10;;;;;;;18.52;100.00;101094.25;7399177;19;20041;-89
2022/07/10 04:59:24;;;;;;;0.68;0.20;;;;;;;18.55;100.00;101098.91;7402152;19;20030;-90
2022/07/10 05:01:50;;;;;;;0.35;0.20;;;;;;;18.59;100.00;101094.59;7399811;19;20018;-91
2022/07/10 05:04:16;;;;;;;0.10;0.08;;;;;;;18.67;100.00;101089.25;7400385;19;20023;-90
2022/07/10 05:06:42;;;;;;;0.63;0.10;;;;;;;18.68;100.00;101094.41;7398630;19;20025;-91
2022/07/10 05:09:08;;;;;;;0.10;0.10;;;;;;;18.68;100.00;101090.81;7398689;19;20389;-91
2022/07/10 05:11:34;;;;;;;0.52;0.45;;;;;;;18.74;100.00;101097.25;7398195;19;20018;-91
2022/07/10 05:14:01;;;;;;;0.52;0.20;;;;;;;18.69;100.00;101092.38;7398324;19;20082;-91
2022/07/10 05:16:27;;;;;;;0.52;0.20;;;;;;;18.68;100.00;101096.47;7401120;19;20018;-91
2022/07/10 05:18:54;;;;;;;0.15;0.10;;;;;;;18.78;100.00;101094.97;7399787;19;20449;-91
2022/07/10 05:21:20;;;;;;;0.10;0.10;;;;;;;18.88;100.00;101093.53;7404059;19;20010;-91
2022/07/10 05:23:46;;;;;;;0.85;0.38;;;;;;;18.91;100.00;101086.84;7399167;19;20380;-91
2022/07/10 05:26:12;;;;;;;0.73;0.35;;;;;;;18.93;100.00;101084.31;7397028;19;20412;-90
2022/07/10 05:28:38;;;;;;;0.10;0.08;;;;;;;18.85;100.00;101088.88;7398070;19;20022;-91
2022/07/10 05:31:04;;;;;;;1.00;0.17;;;;;;;18.81;100.00;101093.97;7397473;19;20014;-90
2022/07/10 05:33:32;;;;;;;0.30;0.10;;;;;;;18.84;100.00;101088.09;7397970;19;20103;-91
2022/07/10 05:35:58;;;;;;;0.68;0.40;;;;;;;18.97;100.00;101084.88;7398784;19;20058;-91
2022/07/10 05:38:24;;;;;;;0.43;0.03;;;;;;;19.02;100.00;101086.16;7399808;19;20021;-90
2022/07/10 05:40:52;;;;;;;0.30;0.03;;;;;;;19.01;100.00;101082.56;7399224;19;20082;-91
2022/07/10 05:43:19;;;;;;;1.35;0.10;;;;;;;18.99;100.00;101079.50;7400137;19;20006;-91
2022/07/10 05:45:45;;;;;;;1.85;0.20;;;;;;;18.87;100.00;101087.09;7396951;19;20337;-93
2022/07/10 05:48:11;;;;;;;0.25;0.10;;;;;;;18.82;100.00;101075.75;7398476;19;20045;-92
2022/07/10 05:50:37;;;;;;;0.10;0.10;;;;;;;18.83;100.00;101077.31;7401752;19;20017;-87
2022/07/10 05:53:03;;;;;;;3.92;0.20;;;;;;;18.87;100.00;101083.50;7398254;19;20022;-93
2022/07/10 05:55:29;;;;;;;0.10;0.00;;;;;;;18.97;100.00;101082.03;7397201;19;20022;-92
2022/07/10 05:57:56;;;;;;;0.22;0.10;;;;;;;19.08;100.00;101082.09;7397218;19;20087;-91
2022/07/10 06:00:22;;;;;;;0.40;0.10;;;;;;;19.18;100.00;101074.19;7403183;19;20014;-92
2022/07/10 06:02:48;;;;;;;0.63;0.10;;;;;;;19.13;100.00;101070.06;7399186;19;20430;-92
2022/07/10 06:05:14;;;;;;;0.88;0.40;;;;;;;19.11;100.00;101066.19;7397490;19;20074;-92
2022/07/10 06:07:40;;;;;;;0.20;0.10;;;;;;;19.10;100.00;101071.06;7395848;19;20014;-92
2022/07/10 06:10:07;;;;;;;0.38;0.15;;;;;;;19.20;100.00;101080.88;7399485;19;20014;-92
2022/07/10 06:12:33;;;;;;;0.10;0.10;;;;;;;19.21;100.00;101064.72;7396774;19;20014;-92
2022/07/10 06:14:59;;;;;;;1.00;0.20;;;;;;;19.28;100.00;101064.22;7396560;19;20018;-92
2022/07/10 06:17:25;;;;;;;0.10;0.10;;;;;;;19.28;100.00;101065.00;7399618;19;20011;-92
2022/07/10 06:19:51;;;;;;;0.25;0.10;;;;;;;19.37;100.00;101064.81;7400050;19;20013;-92
2022/07/10 06:22:33;;;;;;;0.10;0.00;;;;;;;19.33;100.00;101069.13;7399557;19;20383;-93
2022/07/10 06:25:02;;;;;;;0.30;0.10;;;;;;;19.17;100.00;101076.22;7396099;19;20014;-94
2022/07/10 06:27:28;;;;;;;0.70;0.28;;;;;;;19.02;100.00;101077.69;7393651;19;20799;-93
2022/07/10 06:29:55;;;;;;;0.30;0.00;;;;;;;18.91;100.00;101075.56;7399591;19;20077;-92
2022/07/10 06:32:21;;;;;;;0.10;0.00;;;;;;;18.74;100.00;101071.88;7395447;19;20824;-93
2022/07/10 06:34:47;;;;;;;0.60;0.15;;;;;;;18.63;100.00;101071.78;7394770;19;20019;-93
2022/07/10 06:37:13;;;;;;;0.10;0.10;;;;;;;18.59;100.00;101069.19;7398216;19;20027;-94
2022/07/10 06:39:40;;;;;;;0.25;0.10;;;;;;;18.53;100.00;101073.25;7401440;19;20470;-93
2022/07/10 06:42:06;;;;;;;0.13;0.13;;;;;;;18.58;100.00;101081.00;7396683;19;20016;-94
2022/07/10 06:44:43;;;;;;;0.20;0.10;;;;;;;18.50;100.00;101075.03;7394741;19;20018;-93
2022/07/10 06:50:01;;;;;;;0.20;0.20;;;;;;;18.34;100.00;101078.47;7399027;19;20024;-92
2022/07/10 06:52:27;;;;;;;0.40;0.17;;;;;;;18.33;100.00;101076.91;7397039;19;20018;-93
2022/07/10 06:54:54;;;;;;;0.45;0.43;;;;;;;18.33;100.00;101078.94;7395726;19;20018;-92
2022/07/10 06:57:20;;;;;;;0.95;0.10;;;;;;;18.33;100.00;101076.13;7401105;19;20017;-92
2022/07/10 06:59:46;;;;;;;1.63;0.32;;;;;;;18.33;100.00;101076.13;7395262;19;20022;-93
2022/07/10 07:02:12;;;;;;;0.10;0.00;;;;;;;18.35;100.00;101073.56;7389631;19;20026;-93
2022/07/10 07:04:39;;;;;;;0.10;0.10;;;;;;;18.42;100.00;101076.72;7390714;19;20014;-93
2022/07/10 07:07:05;;;;;;;0.13;0.10;;;;;;;18.49;100.00;101079.13;7395700;19;20011;-92
2022/07/10 07:09:31;;;;;;;0.30;0.15;;;;;;;18.53;100.00;101082.50;7396190;19;20472;-93
2022/07/10 07:11:57;;;;;;;0.52;0.13;;;;;;;18.57;100.00;101082.25;7395042;19;20028;-92
2022/07/10 07:14:23;;;;;;;0.20;0.20;;;;;;;18.57;100.00;101074.56;7398074;19;20019;-93
2022/07/10 07:17:03;;;;;;;0.10;0.10;;;;;;;18.56;100.00;101075.09;7403597;19;20120;-89
2022/07/10 07:23:09;;;;;;;0.32;0.10;;;;;;;18.75;100.00;101073.44;7403375;19;20031;-93
2022/07/10 07:25:07;;;;;;;0.65;0.20;;;;;;;18.89;100.00;101066.81;7399273;19;20025;-93
2022/07/10 07:27:34;;;;;;;1.10;0.20;;;;;;;18.91;100.00;101069.91;7392507;19;20010;-92
2022/07/10 07:30:06;;;;;;;2.75;0.30;;;;;;;18.92;100.00;101065.84;7398015;19;20440;-92
2022/07/10 07:32:33;;;;;;;0.10;0.08;;;;;;;19.00;100.00;101066.91;7392355;19;20006;-93
2022/07/10 07:35:00;;;;;;;0.10;0.10;;;;;;;19.05;100.00;101066.16;7395198;19;20022;-93
2022/07/10 07:37:40;;;;;;;0.47;0.10;;;;;;;19.24;100.00;101061.63;7395499;19;20051;-92
2022/07/10 07:40:15;;;;;;;0.20;0.10;;;;;;;19.34;100.00;101060.16;7396895;19;20022;-92
2022/07/10 07:42:41;;;;;;;0.15;0.10;;;;;;;19.39;100.00;101065.06;7399553;19;20015;-92
2022/07/10 07:45:09;;;;;;;1.83;0.35;;;;;;;19.47;100.00;101068.94;7394147;19;20022;-92
2022/07/10 07:47:48;;;;;;;0.63;0.40;;;;;;;19.55;100.00;101072.06;7394127;19;20031;-92
2022/07/10 07:50:16;;;;;;;0.10;0.00;;;;;;;19.49;100.00;101069.22;7399706;19;20014;-93
2022/07/10 07:52:43;;;;;;;0.10;0.03;;;;;;;19.48;100.00;101062.03;7397049;19;20018;-92
2022/07/10 07:55:10;;;;;;;0.25;0.20;;;;;;;19.64;100.00;101069.78;7392852;19;20074;-92
2022/07/10 07:57:37;;;;;;;0.30;0.10;;;;;;;19.79;100.00;101063.16;7395489;19;20043;-90
2022/07/10 08:00:05;;;;;;;2.75;0.20;;;;;;;19.74;100.00;101069.56;7395074;19;20006;-91
2022/07/10 08:02:38;;;;;;;0.10;0.10;;;;;;;19.86;100.00;101063.41;7395681;19;20003;-91
2022/07/10 08:05:05;;;;;;;0.82;0.20;;;;;;;19.94;100.00;101063.69;7394393;19;20347;-92
2022/07/10 08:07:46;;;;;;;1.27;0.10;;;;;;;20.01;100.00;101058.28;7393187;19;20017;-92
2022/07/10 08:10:15;;;;;;;0.10;0.10;;;;;;;20.03;100.00;101060.63;7396338;19;20023;-90
2022/07/10 08:12:42;;;;;;;0.30;0.10;;;;;;;20.16;100.00;101061.66;7396036;19;20010;-91
2022/07/10 08:15:10;;;;;;;0.30;0.10;;;;;;;20.27;100.00;101064.53;7400602;19;20190;-91
2022/07/10 08:17:37;;;;;;;0.80;0.17;;;;;;;20.31;100.00;101058.63;7404985;19;20003;-87
2022/07/10 08:20:05;;;;;;;1.00;0.63;;;;;;;20.46;100.00;101058.38;7409440;19;20019;-92
2022/07/10 08:22:32;;;;;;;0.55;0.10;;;;;;;20.64;100.00;101052.94;7415617;19;20062;-93
2022/07/10 08:24:59;;;;;;;0.80;0.10;;;;;;;20.85;100.00;101054.22;7414923;19;20017;-91
2022/07/10 08:27:25;;;;;;;0.13;0.10;;;;;;;21.15;100.00;101048.75;7399701;19;20029;-94
2022/07/10 08:29:51;;;;;;;0.10;0.10;;;;;;;21.35;100.00;101047.63;7403191;19;20014;-93
2022/07/10 08:32:18;;;;;;;0.20;0.10;;;;;;;21.52;100.00;101046.28;7398697;19;20468;-92
2022/07/10 08:34:44;;;;;;;0.85;0.10;;;;;;;21.79;100.00;101044.56;7399013;19;20022;-93
2022/07/10 08:37:10;;;;;;;1.40;0.38;;;;;;;21.92;100.00;101039.09;7401665;19;20010;-93
2022/07/10 08:39:37;;;;;;;0.10;0.00;;;;;;;22.11;100.00;101045.66;7403522;19;20021;-93
2022/07/10 08:42:10;;;;;;;0.35;0.20;;;;;;;22.34;100.00;101043.41;7400874;19;20017;-94
2022/07/10 08:44:37;;;;;;;0.25;0.15;;;;;;;22.50;100.00;101048.19;7399743;19;20007;-92
2022/07/10 08:47:06;;;;;;;0.10;0.10;;;;;;;22.57;100.00;101036.25;7399507;19;20019;-96
2022/07/10 08:49:35;;;;;;;0.10;0.00;;;;;;;22.71;100.00;101040.78;7403219;19;20006;-94
2022/07/10 08:52:37;;;;;;;1.55;0.20;;;;;;;22.81;100.00;101039.13;7397790;19;20014;-92
2022/07/10 08:55:04;;;;;;;0.73;0.20;;;;;;;22.97;100.00;101041.03;7399991;19;20011;-96
2022/07/10 08:57:33;;;;;;;0.00;0.00;;;;;;;23.06;100.00;101037.06;7402554;19;20015;-93
2022/07/10 08:59:59;;;;;;;0.40;0.10;;;;;;;23.22;100.00;101036.06;7406310;19;20018;-94
2022/07/10 09:02:25;;;;;;;0.15;0.00;;;;;;;23.32;100.00;101031.56;7404539;19;20035;-94
2022/07/10 09:04:52;;;;;;;0.40;0.20;;;;;;;23.43;100.00;101034.31;7402329;19;20015;-95
2022/07/10 09:07:18;;;;;;;0.52;0.25;;;;;;;23.58;100.00;101031.78;7401263;19;20678;-96
2022/07/10 09:09:55;;;;;;;0.00;0.00;;;;;;;23.74;100.00;101032.81;7405691;19;20021;-96
2022/07/10 09:12:22;;;;;;;0.10;0.10;;;;;;;23.86;100.00;101032.16;7401364;19;20019;-96
2022/07/10 09:14:49;;;;;;;0.10;0.00;;;;;;;23.95;100.00;101031.72;7398393;19;20707;-93
2022/07/10 09:17:19;;;;;;;1.55;0.10;;;;;;;24.03;100.00;101026.19;7399640;19;20006;-95
2022/07/10 09:19:45;;;;;;;1.15;0.17;;;;;;;24.11;100.00;101027.13;7404818;19;20019;-96
2022/07/10 09:22:12;;;;;;;0.10;0.10;;;;;;;24.19;100.00;101022.31;7402181;19;20030;-96
2022/07/10 09:24:43;;;;;;;0.63;0.22;;;;;;;24.39;100.00;101004.66;7399414;19;20019;-95
2022/07/10 09:27:09;;;;;;;;;;;;;;;24.47;100.00;101013.31;7399118;19;20333;-91
2022/07/10 09:29:46;;;;;;;0.88;0.10;;;;;;;24.54;100.00;101016.28;7400704;19;19919;-96
2022/07/10 09:32:13;;;;;;;0.85;0.20;;;;;;;24.62;100.00;101016.41;7398453;19;20014;-93
2022/07/10 09:34:44;;;;;;;0.15;0.10;;;;;;;24.81;100.00;101015.03;7398735;19;20018;-94
2022/07/10 09:37:19;;;;;;;0.10;0.00;;;;;;;24.92;100.00;101008.34;7400876;19;20074;-92
2022/07/10 09:39:56;;;;;;;0.35;0.10;;;;;;;24.98;100.00;101009.00;7401271;19;20042;-90
2022/07/10 09:42:41;;;;;;;0.30;0.30;;;;;;;24.98;100.00;101000.47;7399695;19;20094;-95
2022/07/10 09:45:13;;;;;;;0.35;0.10;;;;;;;25.08;100.00;100987.28;7404518;19;20026;-96
2022/07/10 09:47:41;;;;;;;0.20;0.10;;;;;;;25.20;100.00;100994.31;7403620;19;20011;-95
2022/07/10 09:50:28;;;;;;;4.45;0.10;;;;;;;25.42;100.00;100993.88;7400625;19;20023;-92
2022/07/10 09:52:59;;;;;;;0.40;0.10;;;;;;;25.54;100.00;100995.13;7392506;19;20010;-84
2022/07/10 09:55:29;;;;;;;0.30;0.10;;;;;;;25.70;100.00;100990.38;7396484;19;20026;-89
2022/07/10 09:57:57;;;;;;;0.10;0.10;;;;;;;25.75;100.00;100988.72;7400165;19;20031;-92
2022/07/10 10:00:26;;;;;;;1.98;0.25;;;;;;;25.86;100.00;100988.44;7403915;19;20027;-90
2022/07/10 10:02:57;;;;;;;0.30;0.15;;;;;;;25.98;100.00;100998.28;7398016;19;20011;-90
2022/07/10 10:05:35;;;;;;;0.40;0.10;;;;;;;25.92;100.00;100989.84;7396206;19;20014;-89
2022/07/10 10:08:10;;;;;;;3.20;0.17;;;;;;;25.99;100.00;100988.41;7395537;19;20022;-89
2022/07/10 10:10:40;;;;;;;0.85;0.10;;;;;;;26.15;100.00;100982.28;7399115;19;20088;-90
2022/07/10 10:13:10;;;;;;;0.65;0.10;;;;;;;26.15;100.00;100975.81;7395288;19;20014;-88
2022/07/10 10:15:37;;;;;;;0.25;0.10;;;;;;;26.11;100.00;100973.31;7396442;19;20015;-89
2022/07/10 10:18:03;;;;;;;0.30;0.10;;;;;;;26.37;100.00;100969.53;7399814;19;20011;-89
2022/07/10 10:20:41;;;;;;;2.88;0.17;;;;;;;26.50;100.00;100966.56;7403681;19;20014;-90
2022/07/10 10:23:11;;;;;;;1.20;0.20;;;;;;;26.60;100.00;100972.53;7403711;19;20040;-91
2022/07/10 10:25:38;;;;;;;0.32;0.10;;;;;;;26.45;100.00;100970.34;7406727;19;21080;-89
2022/07/10 10:28:07;;;;;;;1.48;0.10;;;;;;;26.40;100.00;100959.81;7396727;19;20032;-89
2022/07/10 10:30:37;;;;;;;0.93;0.20;;;;;;;26.72;100.00;100965.97;7397238;19;20022;-89
2022/07/10 10:33:03;;;;;;;1.55;0.05;;;;;;;26.81;100.00;100970.44;7396900;19;20074;-90
2022/07/10 10:35:47;;;;;;;0.43;0.00;;;;;;;26.81;100.00;100962.59;7395630;19;20011;-89
2022/07/10 10:38:15;;;;;;;2.00;0.32;;;;;;;26.76;100.00;100965.63;7398880;19;20017;-92
2022/07/10 10:40:41;;;;;;;0.30;0.10;;;;;;;26.91;100.00;100969.34;7403793;19;20050;-92
2022/07/10 10:43:22;;;;;;;0.60;0.30;;;;;;;27.07;100.00;100966.56;7397184;19;20082;-90
2022/07/10 10:45:52;;;;;;;2.08;0.10;;;;;;;27.03;100.00;100969.78;7395231;19;20027;-89
2022/07/10 10:48:23;;;;;;;0.25;0.00;;;;;;;27.07;100.00;100964.47;7394877;19;20014;-89
2022/07/10 10:50:51;;;;;;;0.20;0.10;;;;;;;27.08;100.00;100959.50;7396880;19;20014;-91
2022/07/10 10:53:28;;;;;;;0.10;0.10;;;;;;;27.13;100.00;100955.72;7394634;19;20037;-89
2022/07/10 10:56:03;;;;;;;0.88;0.10;;;;;;;27.25;100.00;100956.91;7395675;19;20481;-91
2022/07/10 10:58:40;;;;;;;0.45;0.20;;;;;;;27.17;100.00;100956.13;7396272;19;20010;-92
2022/07/10 11:01:25;;;;;;;0.30;0.00;;;;;;;27.19;100.00;100959.94;7396846;19;20025;-93
2022/07/10 11:04:10;;;;;;;0.57;0.10;;;;;;;27.29;100.00;100952.34;7397873;19;20015;-93
2022/07/10 11:06:50;;;;;;;0.10;0.00;;;;;;;27.31;100.00;100949.69;7394679;19;20673;-95
2022/07/10 11:09:28;;;;;;;0.28;0.00;;;;;;;26.91;100.00;100942.84;7398047;19;20472;-94
2022/07/10 11:12:05;;;;;;;0.45;0.00;;;;;;;26.82;100.00;100944.13;7395846;19;20025;-94
2022/07/10 11:14:40;;;;;;;1.65;0.20;;;;;;;26.62;100.00;100929.88;7395280;19;20018;-92
2022/07/10 11:17:08;;;;;;;2.70;0.20;;;;;;;27.10;100.00;100933.97;7396732;19;20006;-92
2022/07/10 11:19:34;;;;;;;0.30;0.10;;;;;;;25.48;100.00;100923.19;7398654;19;20019;-94
2022/07/10 11:22:10;;;;;;;0.30;0.10;;;;;;;25.81;100.00;100920.84;7399292;19;20350;-95
2022/07/10 11:24:46;;;;;;;0.08;0.00;;;;;;;26.52;100.00;100923.91;7395819;19;20036;-93
2022/07/10 11:27:31;;;;;;;0.20;0.00;;;;;;;26.78;100.00;100915.16;7394447;19;20011;-93
2022/07/10 11:29:59;;;;;;;0.30;0.10;;;;;;;27.33;100.00;100923.38;7397382;19;20026;-93